createdAt,value
2022-08-22T00:00:43.714Z,28.22
2022-08-22T00:02:59.712Z,29.85
2022-08-22T00:06:45.967Z,29.09
2022-08-22T00:12:59.065Z,29.55
2022-08-22T00:19:06.097Z,27.97
2022-08-22T00:25:25.783Z,26.52
2022-08-22T00:31:33.151Z,25.63
2022-08-22T00:37:41.682Z,24.99
2022-08-22T00:43:39.278Z,24.56
2022-08-22T00:49:49.491Z,24.21
2022-08-22T00:56:02.307Z,23.88
2022-08-22T01:02:04.826Z,23.64
2022-08-22T01:08:11.621Z,23.45
2022-08-22T01:14:12.205Z,23.33
2022-08-22T01:20:14.916Z,23.21
2022-08-22T01:26:17.332Z,23.15
2022-08-22T01:32:23.414Z,23.07
2022-08-22T01:38:30.687Z,22.97
2022-08-22T01:44:32.940Z,23.78
2022-08-22T01:50:35.704Z,26.74
2022-08-22T01:56:38.192Z,28.11
2022-08-22T02:02:44.735Z,28.89
2022-08-22T02:08:47.204Z,29.44
2022-08-22T02:14:54.243Z,28.09
2022-08-22T02:21:01.518Z,26.75
2022-08-22T02:27:04.446Z,25.85
2022-08-22T02:33:15.893Z,25.18
2022-08-22T02:39:19.917Z,24.62
2022-08-22T02:45:23.798Z,24.23
2022-08-22T02:51:27.711Z,24.00
2022-08-22T02:57:39.481Z,23.85
2022-08-22T03:03:46.453Z,23.73
2022-08-22T03:09:56.601Z,23.67
2022-08-22T03:16:06.285Z,23.68
2022-08-22T03:22:10.252Z,23.68
2022-08-22T03:28:32.585Z,23.66
2022-08-22T03:34:34.739Z,23.60
2022-08-22T03:40:38.820Z,23.56
2022-08-22T03:46:58.184Z,23.56
2022-08-22T03:53:00.607Z,23.51
2022-08-22T03:59:19.794Z,23.33
2022-08-22T04:05:22.707Z,23.17
2022-08-22T04:11:31.303Z,23.01
2022-08-22T04:17:46.154Z,22.89
2022-08-22T04:23:48.605Z,23.94
2022-08-22T04:29:58.632Z,26.67
2022-08-22T04:36:08.386Z,27.91
2022-08-22T04:42:30.781Z,28.75
2022-08-22T04:48:32.172Z,29.40
2022-08-22T04:54:44.968Z,28.19
2022-08-22T05:00:49.026Z,26.54
2022-08-22T05:06:51.807Z,25.45
2022-08-22T05:12:55.758Z,24.69
2022-08-22T05:18:59.780Z,24.15
2022-08-22T05:25:03.978Z,23.77
2022-08-22T05:31:08.138Z,23.54
2022-08-22T05:37:12.299Z,23.36
2022-08-22T05:43:16.245Z,23.21
2022-08-22T05:49:20.267Z,23.12
2022-08-22T05:55:30.264Z,23.09
2022-08-22T06:01:27.342Z,23.15
2022-08-22T06:07:31.499Z,23.26
2022-08-22T06:13:41.750Z,23.37
2022-08-22T06:19:46.106Z,23.48
2022-08-22T06:25:52.891Z,23.59
2022-08-22T06:32:00.337Z,23.68
2022-08-22T06:38:04.228Z,23.77
2022-08-22T06:44:08.178Z,23.86
2022-08-22T06:50:13.544Z,23.94
2022-08-22T06:56:17.876Z,24.00
2022-08-22T07:02:33.889Z,24.06
2022-08-22T07:08:39.268Z,24.12
2022-08-22T07:14:43.440Z,24.18
2022-08-22T07:20:47.652Z,24.25
2022-08-22T07:26:51.710Z,26.71
2022-08-22T07:32:52.611Z,28.86
2022-08-22T07:38:56.709Z,29.94
2022-08-22T07:45:01.019Z,30.76
2022-08-22T07:51:05.020Z,30.63
2022-08-22T07:57:08.974Z,29.00
2022-08-22T08:03:11.691Z,28.02
2022-08-22T08:09:00.855Z,27.34
2022-08-22T08:15:04.795Z,26.84
2022-08-22T08:21:08.632Z,26.45
2022-08-22T08:27:10.712Z,26.13
2022-08-22T08:33:24.975Z,25.89
2022-08-22T08:39:24.049Z,25.72
2022-08-22T08:45:22.132Z,25.58
2022-08-22T08:51:18.648Z,25.47
2022-08-22T08:57:13.303Z,25.41
2022-08-22T09:03:30.809Z,25.37
2022-08-22T09:09:33.900Z,25.35
2022-08-22T09:15:55.055Z,25.33
2022-08-22T09:22:22.184Z,25.33
2022-08-22T09:28:29.740Z,25.32
2022-08-22T09:34:33.879Z,25.31
2022-08-22T09:40:30.427Z,25.30
2022-08-22T09:46:37.241Z,25.30
2022-08-22T09:52:50.583Z,25.31
2022-08-22T09:58:54.989Z,25.32
2022-08-22T10:04:58.772Z,25.33
2022-08-22T10:11:08.636Z,25.34
2022-08-22T10:17:22.576Z,25.35
2022-08-22T10:23:29.648Z,25.36
2022-08-22T10:29:39.761Z,25.36
2022-08-22T10:35:49.423Z,25.37
2022-08-22T10:41:53.466Z,25.38
2022-08-22T10:48:01.228Z,25.39
2022-08-22T10:53:57.851Z,25.40
2022-08-22T11:00:03.334Z,25.42
2022-08-22T11:06:00.744Z,25.42
2022-08-22T11:12:05.336Z,25.42
2022-08-22T11:18:12.980Z,25.43
2022-08-22T11:24:30.013Z,25.44
2022-08-22T11:30:44.508Z,25.46
2022-08-22T11:37:01.893Z,25.50
2022-08-22T11:43:06.573Z,25.54
2022-08-22T11:49:25.662Z,25.58
2022-08-22T11:55:33.253Z,25.61
2022-08-22T12:01:47.880Z,25.63
2022-08-22T12:08:03.014Z,25.65
2022-08-22T12:14:10.205Z,25.66
2022-08-22T12:20:16.882Z,25.70
2022-08-22T12:26:22.151Z,25.74
2022-08-22T12:32:45.752Z,25.78
2022-08-22T12:38:48.166Z,25.83
2022-08-22T12:44:46.519Z,25.87
2022-08-22T12:50:50.563Z,25.89
2022-08-22T12:56:51.049Z,25.90
2022-08-22T13:02:52.053Z,25.89
2022-08-22T13:08:56.247Z,25.89
2022-08-22T13:14:51.185Z,25.87
2022-08-22T13:20:55.339Z,25.86
2022-08-22T13:27:03.839Z,25.87
2022-08-22T13:33:15.432Z,28.45
2022-08-22T13:39:20.556Z,30.43
2022-08-22T13:45:23.605Z,31.39
2022-08-22T13:51:16.737Z,32.08
2022-08-22T13:57:23.927Z,31.60
2022-08-22T14:03:40.503Z,30.03
2022-08-22T14:09:32.683Z,29.11
2022-08-22T14:15:44.733Z,28.47
2022-08-22T14:21:47.862Z,27.95
2022-08-22T14:27:45.522Z,27.56
2022-08-22T14:33:54.704Z,27.25
2022-08-22T14:39:55.559Z,27.00
2022-08-22T14:46:04.298Z,26.81
2022-08-22T14:52:02.618Z,26.64
2022-08-22T14:58:03.298Z,26.52
2022-08-22T15:04:18.867Z,26.41
2022-08-22T15:10:22.913Z,26.33
2022-08-22T15:16:29.965Z,26.27
2022-08-22T15:22:28.748Z,26.21
2022-08-22T15:28:33.747Z,26.17
2022-08-22T15:35:03.470Z,26.13
2022-08-22T15:41:08.067Z,26.11
2022-08-22T15:47:05.873Z,26.08
2022-08-22T15:53:06.583Z,26.06
2022-08-22T15:59:12.165Z,26.06
2022-08-22T16:05:16.271Z,26.05
2022-08-22T16:11:16.980Z,26.05
2022-08-22T16:17:17.617Z,26.04
2022-08-22T16:23:36.395Z,26.03
2022-08-22T16:29:41.583Z,26.03
2022-08-22T16:35:46.029Z,26.02
2022-08-22T16:41:42.001Z,26.02
2022-08-22T16:47:58.378Z,26.02
2022-08-22T16:54:02.813Z,26.01
2022-08-22T17:00:09.567Z,26.00
2022-08-22T17:06:13.713Z,26.00
2022-08-22T17:12:15.890Z,25.98
2022-08-22T17:18:25.764Z,25.96
2022-08-22T17:24:34.083Z,25.94
2022-08-22T17:30:41.546Z,25.93
2022-08-22T17:36:38.781Z,25.92
2022-08-22T17:42:42.842Z,25.90
2022-08-22T17:48:51.668Z,25.89
2022-08-22T17:54:55.705Z,25.90
2022-08-22T18:00:59.723Z,25.91
2022-08-22T18:07:05.638Z,25.91
2022-08-22T18:13:12.673Z,25.91
2022-08-22T18:19:25.472Z,25.91
2022-08-22T18:25:29.671Z,25.91
2022-08-22T18:31:46.155Z,25.91
2022-08-22T18:37:53.190Z,25.91
2022-08-22T18:44:00.508Z,25.91
2022-08-22T18:50:04.519Z,25.90
2022-08-22T18:56:08.659Z,25.90
2022-08-22T19:02:15.933Z,25.90
2022-08-22T19:08:29.139Z,25.90
2022-08-22T19:14:33.034Z,25.89
2022-08-22T19:20:38.525Z,25.88
2022-08-22T19:26:41.208Z,25.87
2022-08-22T19:32:45.521Z,25.87
2022-08-22T19:38:43.554Z,25.86
2022-08-22T19:44:40.309Z,25.86
2022-08-22T19:50:50.107Z,25.85
2022-08-22T19:57:06.336Z,25.84
2022-08-22T20:03:13.336Z,25.83
2022-08-22T20:09:16.108Z,25.83
2022-08-22T20:15:20.054Z,25.82
2022-08-22T20:21:17.710Z,25.82
2022-08-22T20:27:21.579Z,25.82
2022-08-22T20:33:25.509Z,25.82
2022-08-22T20:39:29.430Z,25.82
2022-08-22T20:45:33.279Z,25.84
2022-08-22T20:51:27.225Z,25.84
2022-08-22T20:57:31.231Z,25.85
2022-08-22T21:03:29.053Z,25.86
2022-08-22T21:09:31.679Z,25.86
2022-08-22T21:15:28.406Z,25.87
2022-08-22T21:21:31.099Z,25.88
2022-08-22T21:27:37.744Z,25.88
2022-08-22T21:33:41.700Z,25.89
2022-08-22T21:39:45.639Z,25.90
2022-08-22T21:45:49.735Z,25.91
2022-08-22T21:52:12.185Z,25.91
2022-08-22T21:58:30.968Z,25.91
2022-08-22T22:04:40.264Z,25.90
2022-08-22T22:10:37.101Z,25.90
2022-08-22T22:16:33.860Z,25.89
2022-08-22T22:22:38.167Z,25.87
2022-08-22T22:28:43.990Z,25.80
2022-08-22T22:34:29.570Z,25.69
2022-08-22T22:40:24.152Z,25.56
2022-08-22T22:46:19.615Z,25.46
2022-08-22T22:52:05.623Z,25.35
2022-08-22T22:58:15.554Z,25.19
2022-08-22T23:04:09.418Z,26.74
2022-08-22T23:10:13.505Z,29.03
2022-08-22T23:16:16.023Z,29.96
2022-08-22T23:22:18.806Z,30.55
2022-08-22T23:28:22.782Z,30.82
2022-08-22T23:34:16.577Z,29.12
2022-08-22T23:40:29.667Z,27.76
2022-08-22T23:46:33.645Z,26.87
2022-08-22T23:52:31.508Z,26.17
2022-08-22T23:58:35.430Z,25.62
